createdAt,value
2019-01-30T00:00:23.435Z,75.50
2019-01-30T00:03:18.382Z,74.40
2019-01-30T00:06:13.283Z,78.23
2019-01-30T00:09:11.337Z,84.20
2019-01-30T00:12:05.615Z,79.40
2019-01-30T00:14:59.914Z,82.83
2019-01-30T00:17:55.454Z,80.17
2019-01-30T00:20:49.787Z,76.47
2019-01-30T00:23:44.110Z,82.93
2019-01-30T00:26:38.629Z,87.77
2019-01-30T00:29:32.902Z,85.03
2019-01-30T00:32:27.550Z,86.50
2019-01-30T00:35:21.854Z,79.97
2019-01-30T00:38:16.391Z,96.53
2019-01-30T00:41:10.892Z,77.27
2019-01-30T00:44:05.130Z,95.33
2019-01-30T00:46:59.639Z,100.70
2019-01-30T00:50:02.799Z,95.77
2019-01-30T00:52:57.125Z,90.93
2019-01-30T00:55:51.646Z,93.07
2019-01-30T00:58:46.298Z,95.17
2019-01-30T01:01:40.867Z,89.30
2019-01-30T01:04:35.392Z,91.20
2019-01-30T01:07:29.606Z,91.70
2019-01-30T01:10:24.427Z,100.67
2019-01-30T01:13:19.373Z,93.73
2019-01-30T01:16:13.940Z,89.57
2019-01-30T01:19:08.662Z,89.17
2019-01-30T01:22:02.874Z,91.17
2019-01-30T01:24:57.526Z,90.63
2019-01-30T01:27:51.887Z,95.50
2019-01-30T01:30:46.007Z,92.00
2019-01-30T01:33:40.495Z,95.17
2019-01-30T01:36:35.030Z,94.30
2019-01-30T01:39:29.272Z,94.10
2019-01-30T01:42:23.458Z,97.03
2019-01-30T01:45:22.560Z,101.97
2019-01-30T01:48:16.719Z,97.57
2019-01-30T01:51:11.077Z,103.03
2019-01-30T01:54:08.148Z,106.17
2019-01-30T01:57:02.740Z,112.33
2019-01-30T01:59:57.251Z,108.90
2019-01-30T02:02:51.468Z,96.30
2019-01-30T02:05:46.025Z,101.47
2019-01-30T02:08:40.093Z,95.53
2019-01-30T02:11:34.493Z,97.50
2019-01-30T02:14:31.568Z,93.90
2019-01-30T02:17:26.203Z,99.20
2019-01-30T02:20:22.982Z,101.00
2019-01-30T02:23:17.279Z,100.53
2019-01-30T02:26:12.221Z,95.37
2019-01-30T02:29:06.973Z,93.60
2019-01-30T02:32:02.101Z,91.87
2019-01-30T02:34:56.598Z,87.53
2019-01-30T02:37:51.481Z,87.13
2019-01-30T02:40:46.410Z,76.23
2019-01-30T02:43:40.875Z,86.17
2019-01-30T02:46:36.211Z,81.83
2019-01-30T02:49:31.281Z,78.00
2019-01-30T02:52:32.144Z,67.80
2019-01-30T02:55:26.616Z,62.63
2019-01-30T02:58:21.715Z,66.80
2019-01-30T03:01:16.966Z,56.43
2019-01-30T03:04:12.336Z,64.53
2019-01-30T03:07:06.922Z,57.20
2019-01-30T03:10:01.744Z,61.20
2019-01-30T03:12:56.209Z,54.40
2019-01-30T03:15:50.929Z,50.53
2019-01-30T03:18:45.611Z,54.70
2019-01-30T03:21:40.379Z,50.77
2019-01-30T03:24:35.057Z,54.37
2019-01-30T03:27:29.784Z,49.97
2019-01-30T03:30:31.557Z,53.43
2019-01-30T03:33:28.908Z,55.27
2019-01-30T03:36:23.389Z,54.53
2019-01-30T03:39:28.531Z,40.97
2019-01-30T03:42:24.126Z,35.87
2019-01-30T03:45:23.056Z,41.93
2019-01-30T03:48:17.963Z,47.50
2019-01-30T03:51:12.340Z,47.30
2019-01-30T03:54:08.365Z,43.50
2019-01-30T03:57:02.878Z,40.03
2019-01-30T03:59:58.215Z,47.13
2019-01-30T04:02:55.469Z,39.03
2019-01-30T04:05:55.225Z,42.20
2019-01-30T04:08:46.859Z,43.03
2019-01-30T04:11:41.231Z,41.90
2019-01-30T04:14:36.171Z,42.30
2019-01-30T04:17:30.855Z,41.30
2019-01-30T04:20:26.072Z,34.27
2019-01-30T04:23:21.494Z,30.43
2019-01-30T04:26:15.958Z,39.63
2019-01-30T04:29:10.893Z,41.97
2019-01-30T04:32:05.656Z,40.40
2019-01-30T04:35:00.295Z,37.37
2019-01-30T04:37:54.978Z,34.70
2019-01-30T04:40:50.059Z,34.47
2019-01-30T04:43:44.390Z,31.93
2019-01-30T04:46:38.941Z,30.43
2019-01-30T04:49:33.356Z,29.80
2019-01-30T04:52:27.732Z,29.37
2019-01-30T04:55:21.958Z,28.43
2019-01-30T04:58:16.413Z,27.30
2019-01-30T05:01:10.767Z,27.73
2019-01-30T05:04:05.021Z,26.50
2019-01-30T05:06:59.402Z,26.73
2019-01-30T05:09:56.014Z,24.10
2019-01-30T05:12:55.266Z,25.53
2019-01-30T05:15:54.109Z,24.20
2019-01-30T05:18:57.261Z,23.73
2019-01-30T05:21:55.722Z,24.20
2019-01-30T05:24:59.295Z,22.47
2019-01-30T05:32:01.448Z,21.70
2019-01-30T05:34:52.152Z,23.13
2019-01-30T05:37:46.642Z,21.70
2019-01-30T05:40:45.362Z,20.97
2019-01-30T05:43:42.533Z,22.43
2019-01-30T05:46:37.055Z,21.30
2019-01-30T05:49:31.634Z,20.63
2019-01-30T05:52:26.299Z,21.90
2019-01-30T05:55:21.161Z,20.73
2019-01-30T06:01:33.321Z,19.93
2019-01-30T06:04:28.214Z,20.93
2019-01-30T06:07:26.015Z,19.67
2019-01-30T06:10:21.224Z,18.67
2019-01-30T06:14:12.431Z,21.50
2019-01-30T06:17:15.063Z,19.23
2019-01-30T06:20:14.424Z,20.60
2019-01-30T06:23:15.470Z,20.27
2019-01-30T06:33:57.686Z,20.03
2019-01-30T06:36:53.595Z,18.33
2019-01-30T06:39:55.258Z,19.63
2019-01-30T06:42:51.831Z,19.53
2019-01-30T06:45:47.818Z,17.97
2019-01-30T06:48:42.612Z,19.20
2019-01-30T06:51:37.809Z,20.20
2019-01-30T06:54:33.286Z,20.63
2019-01-30T06:57:29.537Z,19.30
2019-01-30T07:00:30.209Z,18.23
2019-01-30T07:03:29.468Z,18.43
2019-01-30T07:06:26.757Z,17.40
2019-01-30T07:09:21.582Z,18.47
2019-01-30T07:12:20.962Z,18.17
2019-01-30T07:15:55.336Z,17.43
2019-01-30T07:18:51.433Z,16.73
2019-01-30T07:21:48.648Z,17.37
2019-01-30T07:24:46.688Z,17.10
2019-01-30T07:27:42.811Z,17.40
2019-01-30T07:30:40.062Z,17.80
2019-01-30T07:33:43.112Z,17.90
2019-01-30T07:36:35.704Z,17.80
2019-01-30T07:39:33.118Z,16.23
2019-01-30T07:42:44.996Z,17.00
2019-01-30T07:45:43.408Z,18.20
2019-01-30T07:48:43.238Z,17.80
2019-01-30T07:51:39.365Z,15.93
2019-01-30T07:54:37.542Z,16.17
2019-01-30T07:57:47.364Z,16.47
2019-01-30T08:00:46.178Z,16.23
2019-01-30T08:03:42.936Z,16.23
2019-01-30T08:06:37.434Z,16.27
2019-01-30T08:09:42.416Z,17.30
2019-01-30T08:12:41.481Z,16.30
2019-01-30T08:15:36.388Z,16.83
2019-01-30T08:21:27.993Z,17.97
2019-01-30T08:24:25.783Z,17.70
2019-01-30T08:27:28.493Z,17.50
2019-01-30T08:30:45.166Z,17.70
2019-01-30T08:33:51.137Z,17.93
2019-01-30T08:36:47.374Z,18.53
2019-01-30T08:39:42.714Z,17.80
2019-01-30T08:46:00.007Z,19.60
2019-01-30T08:48:56.348Z,18.77
2019-01-30T08:51:52.207Z,17.73
2019-01-30T08:54:56.663Z,18.60
2019-01-30T08:57:52.370Z,17.80
2019-01-30T09:00:47.064Z,16.10
2019-01-30T09:03:41.537Z,18.40
2019-01-30T09:06:36.593Z,16.87
2019-01-30T09:09:31.554Z,19.37
2019-01-30T09:12:26.363Z,18.07
2019-01-30T09:15:22.272Z,16.90
2019-01-30T09:18:16.990Z,18.10
2019-01-30T09:21:11.669Z,17.77
2019-01-30T09:24:06.077Z,19.90
2019-01-30T09:27:00.822Z,21.03
2019-01-30T09:29:58.025Z,18.60
2019-01-30T09:32:55.512Z,18.93
2019-01-30T09:35:49.851Z,18.47
2019-01-30T09:38:44.134Z,17.67
2019-01-30T09:41:38.853Z,17.30
2019-01-30T09:44:34.412Z,18.37
2019-01-30T09:47:29.282Z,17.50
2019-01-30T09:50:25.603Z,16.77
2019-01-30T09:53:21.446Z,15.93
2019-01-30T09:56:17.144Z,18.90
2019-01-30T09:59:12.414Z,17.10
2019-01-30T10:02:07.602Z,16.43
2019-01-30T10:05:02.008Z,19.60
2019-01-30T10:07:58.589Z,17.80
2019-01-30T10:10:52.118Z,19.57
2019-01-30T10:13:46.449Z,19.27
2019-01-30T10:16:47.970Z,18.37
2019-01-30T10:19:57.198Z,17.63
2019-01-30T10:22:54.204Z,16.43
2019-01-30T10:25:48.974Z,15.80
2019-01-30T10:28:43.683Z,16.53
2019-01-30T10:31:39.261Z,15.63
2019-01-30T10:43:47.798Z,18.47
2019-01-30T10:46:45.442Z,15.33
2019-01-30T10:50:09.637Z,16.77
2019-01-30T10:53:41.299Z,16.57
2019-01-30T11:08:31.205Z,17.57
2019-01-30T11:11:26.989Z,16.67
2019-01-30T11:18:47.193Z,19.17
2019-01-30T11:21:46.286Z,16.47
2019-01-30T11:24:44.501Z,17.90
2019-01-30T11:27:46.450Z,19.33
2019-01-30T11:31:03.813Z,17.13
2019-01-30T11:34:08.128Z,17.70
2019-01-30T11:37:13.359Z,18.23
2019-01-30T11:40:45.841Z,16.53
2019-01-30T11:43:44.280Z,17.67
2019-01-30T11:46:41.673Z,19.70
2019-01-30T11:49:42.062Z,17.63
2019-01-30T11:52:52.529Z,18.40
2019-01-30T11:56:06.465Z,16.40
2019-01-30T11:59:21.484Z,17.97
2019-01-30T12:03:02.930Z,23.63
2019-01-30T12:09:28.355Z,23.77
2019-01-30T12:12:23.218Z,22.47
2019-01-30T12:16:10.457Z,20.10
2019-01-30T12:19:02.459Z,19.67
2019-01-30T12:22:16.415Z,19.43
2019-01-30T12:25:05.438Z,20.53
2019-01-30T12:27:53.719Z,23.67
2019-01-30T12:31:00.002Z,22.17
2019-01-30T12:33:54.200Z,24.37
2019-01-30T12:36:48.239Z,21.53
2019-01-30T12:39:43.260Z,25.30
2019-01-30T12:42:41.141Z,21.87
2019-01-30T12:45:37.253Z,20.83
2019-01-30T12:48:31.331Z,21.80
2019-01-30T12:51:26.303Z,21.57
2019-01-30T12:57:38.467Z,21.73
2019-01-30T13:00:35.846Z,22.57
2019-01-30T13:03:30.049Z,23.93
2019-01-30T13:06:24.406Z,24.33
2019-01-30T13:09:18.872Z,27.10
2019-01-30T13:12:13.192Z,28.93
2019-01-30T13:15:08.682Z,28.97
2019-01-30T13:18:13.926Z,32.63
2019-01-30T13:21:00.018Z,36.67
2019-01-30T13:23:54.600Z,40.00
2019-01-30T13:26:48.786Z,41.33
2019-01-30T13:29:43.078Z,44.23
2019-01-30T13:32:40.823Z,52.80
2019-01-30T13:35:36.314Z,54.53
2019-01-30T13:38:30.735Z,51.60
2019-01-30T13:41:24.762Z,55.20
2019-01-30T13:44:18.766Z,58.80
2019-01-30T13:47:13.293Z,53.27
2019-01-30T13:50:11.036Z,52.30
2019-01-30T13:53:06.904Z,51.63
2019-01-30T13:56:01.742Z,51.77
2019-01-30T13:58:56.507Z,61.40
2019-01-30T14:01:51.913Z,63.37
2019-01-30T14:04:48.407Z,61.57
2019-01-30T14:07:46.535Z,61.20
2019-01-30T14:10:41.900Z,58.83
2019-01-30T14:13:36.484Z,60.97
2019-01-30T14:16:31.671Z,60.50
2019-01-30T14:19:26.621Z,58.77
2019-01-30T14:22:21.177Z,57.47
2019-01-30T14:25:16.458Z,58.27
2019-01-30T14:28:34.746Z,54.47
2019-01-30T14:31:52.479Z,51.40
2019-01-30T14:35:10.739Z,50.90
2019-01-30T14:38:33.912Z,50.97
2019-01-30T14:41:28.885Z,49.20
2019-01-30T14:44:23.688Z,47.60
2019-01-30T14:47:18.074Z,46.20
2019-01-30T14:50:15.384Z,44.70
2019-01-30T14:53:08.173Z,44.20
2019-01-30T14:56:05.203Z,45.00
2019-01-30T14:58:59.755Z,46.07
2019-01-30T15:01:54.298Z,44.67
2019-01-30T15:04:49.236Z,44.80
2019-01-30T15:07:44.238Z,44.23
2019-01-30T15:10:40.288Z,45.47
2019-01-30T15:13:34.479Z,46.50
2019-01-30T15:16:28.887Z,43.73
2019-01-30T15:19:23.369Z,46.50
2019-01-30T15:22:18.329Z,47.00
2019-01-30T15:25:15.232Z,45.97
2019-01-30T15:28:11.146Z,44.23
2019-01-30T15:31:06.372Z,47.10
2019-01-30T15:34:02.081Z,51.87
2019-01-30T15:36:58.084Z,57.27
2019-01-30T15:39:53.202Z,59.33
2019-01-30T15:42:49.492Z,59.67
2019-01-30T15:45:44.117Z,51.57
2019-01-30T15:48:38.785Z,59.97
2019-01-30T15:51:33.699Z,55.53
2019-01-30T15:54:28.301Z,48.50
2019-01-30T15:57:23.586Z,49.97
2019-01-30T16:00:40.391Z,49.43
2019-01-30T16:03:34.564Z,49.20
2019-01-30T16:06:37.840Z,53.93
2019-01-30T16:09:31.387Z,53.23
2019-01-30T16:12:25.609Z,49.63
2019-01-30T16:15:23.914Z,49.50
2019-01-30T16:18:18.246Z,48.00
2019-01-30T16:21:12.372Z,46.10
2019-01-30T16:24:06.901Z,47.63
2019-01-30T16:27:01.083Z,48.20
2019-01-30T16:29:57.019Z,48.10
2019-01-30T16:32:51.824Z,48.07
2019-01-30T16:35:55.708Z,46.50
2019-01-30T16:38:42.107Z,45.83
2019-01-30T16:41:36.708Z,53.43
2019-01-30T16:44:31.121Z,51.20
2019-01-30T16:47:25.807Z,57.73
2019-01-30T16:50:20.592Z,54.87
2019-01-30T16:53:15.213Z,57.20
2019-01-30T16:56:09.698Z,48.63
2019-01-30T16:59:04.345Z,56.10
2019-01-30T17:01:58.733Z,55.53
2019-01-30T17:04:53.572Z,53.70
2019-01-30T17:07:50.600Z,54.23
2019-01-30T17:10:53.151Z,54.43
2019-01-30T17:13:46.318Z,46.50
2019-01-30T17:16:41.154Z,52.00
2019-01-30T17:19:35.561Z,49.80
2019-01-30T17:22:33.107Z,50.27
2019-01-30T17:25:28.068Z,53.03
2019-01-30T17:28:24.701Z,54.67
2019-01-30T17:31:22.502Z,52.20
2019-01-30T17:34:17.889Z,48.63
2019-01-30T17:37:12.640Z,52.33
2019-01-30T17:40:09.322Z,51.90
2019-01-30T17:43:03.745Z,47.20
2019-01-30T17:45:58.086Z,46.73
2019-01-30T17:48:52.674Z,46.70
2019-01-30T17:51:48.428Z,45.47
2019-01-30T17:54:42.961Z,45.13
2019-01-30T17:57:37.889Z,44.63
2019-01-30T18:00:46.400Z,42.37
2019-01-30T18:03:39.768Z,41.97
2019-01-30T18:06:34.561Z,42.50
2019-01-30T18:09:30.279Z,41.33
2019-01-30T18:12:24.455Z,39.77
2019-01-30T18:15:19.283Z,38.33
2019-01-30T18:18:13.877Z,38.50
2019-01-30T18:21:09.223Z,38.93
2019-01-30T18:24:03.531Z,37.67
2019-01-30T18:26:57.809Z,38.33
2019-01-30T18:29:55.023Z,36.03
2019-01-30T18:32:49.331Z,35.43
2019-01-30T18:35:43.560Z,35.27
2019-01-30T18:38:37.944Z,35.77
2019-01-30T18:41:33.083Z,34.27
2019-01-30T18:44:27.461Z,34.00
2019-01-30T18:47:24.484Z,33.63
2019-01-30T18:50:23.764Z,33.90
2019-01-30T18:53:17.980Z,35.50
2019-01-30T18:56:12.454Z,34.53
2019-01-30T18:59:07.023Z,33.93
2019-01-30T19:02:01.456Z,34.40
2019-01-30T19:04:55.971Z,33.97
2019-01-30T19:07:50.472Z,32.47
2019-01-30T19:10:44.957Z,33.23
2019-01-30T19:13:39.602Z,32.57
2019-01-30T19:16:33.967Z,34.03
2019-01-30T19:19:29.415Z,33.70
2019-01-30T19:22:23.876Z,32.30
2019-01-30T19:25:18.676Z,33.47
2019-01-30T19:28:16.065Z,33.67
2019-01-30T19:31:09.052Z,32.90
2019-01-30T19:34:03.090Z,35.03
2019-01-30T19:37:03.658Z,33.77
2019-01-30T19:39:53.311Z,32.83
2019-01-30T19:42:48.030Z,34.07
2019-01-30T19:45:42.181Z,33.37
2019-01-30T19:48:36.312Z,32.80
2019-01-30T19:51:30.147Z,31.73
2019-01-30T19:54:24.997Z,31.87
2019-01-30T19:57:19.088Z,33.10
2019-01-30T20:00:25.929Z,32.80
2019-01-30T20:03:23.452Z,33.40
2019-01-30T20:06:17.852Z,33.67
2019-01-30T20:09:19.286Z,34.23
2019-01-30T20:12:14.382Z,34.37
2019-01-30T20:15:10.088Z,33.63
2019-01-30T20:18:04.514Z,31.13
2019-01-30T20:20:58.601Z,33.73
2019-01-30T20:23:53.100Z,33.20
2019-01-30T20:26:47.612Z,33.10
2019-01-30T20:29:41.791Z,32.23
2019-01-30T20:32:36.627Z,34.13
2019-01-30T20:35:30.958Z,35.17
2019-01-30T20:38:25.233Z,32.87
2019-01-30T20:41:19.332Z,33.50
2019-01-30T20:44:13.512Z,30.97
2019-01-30T20:47:04.164Z,34.13
2019-01-30T20:49:58.225Z,32.83
2019-01-30T20:52:52.564Z,34.10
2019-01-30T20:55:46.970Z,33.33
2019-01-30T20:58:41.411Z,33.40
2019-01-30T21:01:35.872Z,32.13
2019-01-30T21:04:31.145Z,33.50
2019-01-30T21:07:36.822Z,30.70
2019-01-30T21:10:25.518Z,32.43
2019-01-30T21:13:20.267Z,31.50
2019-01-30T21:16:14.336Z,31.17
2019-01-30T21:19:08.597Z,31.93
2019-01-30T21:22:03.130Z,30.73
2019-01-30T21:25:01.809Z,31.53
2019-01-30T21:27:56.122Z,30.17
2019-01-30T21:30:50.895Z,29.53
2019-01-30T21:33:45.031Z,28.67
2019-01-30T21:36:40.108Z,29.57
2019-01-30T21:39:35.908Z,29.87
2019-01-30T21:42:30.480Z,28.47
2019-01-30T21:45:26.036Z,31.77
2019-01-30T21:48:20.424Z,29.40
2019-01-30T21:51:14.891Z,31.87
2019-01-30T21:54:12.424Z,33.50
2019-01-30T21:57:06.960Z,36.40
2019-01-30T22:00:01.330Z,33.23
2019-01-30T22:02:56.078Z,34.00
2019-01-30T22:05:50.395Z,37.73
2019-01-30T22:08:44.606Z,40.33
2019-01-30T22:11:38.950Z,39.23
2019-01-30T22:14:33.477Z,42.53
2019-01-30T22:17:28.126Z,48.73
2019-01-30T22:20:24.684Z,48.77
2019-01-30T22:23:19.137Z,47.10
2019-01-30T22:26:15.567Z,53.80
2019-01-30T22:29:09.967Z,53.13
2019-01-30T22:32:04.356Z,59.70
2019-01-30T22:34:58.551Z,64.17
2019-01-30T22:37:53.566Z,71.33
2019-01-30T22:40:47.853Z,74.67
2019-01-30T22:43:42.215Z,79.67
2019-01-30T22:46:36.577Z,83.00
2019-01-30T22:49:30.940Z,96.20
2019-01-30T22:52:25.420Z,92.70
2019-01-30T22:55:21.678Z,104.03
2019-01-30T22:58:16.288Z,113.30
2019-01-30T23:01:33.044Z,76.53
2019-01-30T23:05:00.402Z,63.23
2019-01-30T23:08:31.537Z,91.27
2019-01-30T23:11:57.617Z,90.63
2019-01-30T23:14:59.850Z,94.37
2019-01-30T23:18:31.718Z,100.97
2019-01-30T23:21:30.615Z,104.40
2019-01-30T23:25:03.214Z,113.87
2019-01-30T23:28:33.924Z,113.27
2019-01-30T23:32:02.845Z,115.43
2019-01-30T23:35:19.778Z,126.37
2019-01-30T23:38:38.603Z,124.10
2019-01-30T23:41:59.667Z,109.23
2019-01-30T23:45:19.231Z,113.37
2019-01-30T23:49:07.988Z,128.10
2019-01-30T23:52:12.919Z,109.90
2019-01-30T23:55:31.256Z,113.50
2019-01-30T23:58:49.104Z,113.10
